Cardiff, California
Current Conditions -  °F | °C
As of 12:53 PM on Friday 24 Oct 2014 (Local Time) from KCRQ Reporting Station
Clear Clear  
Wind Chill: 81°   Ceiling: Unl
Heat Index: 81°   Visibility: 10mi
Dew Point: 49°   Wind: 7mph
Humidity: 33%   Direction: 250°WSW
Pressure: 29.95"   Gusts: NA
Location:  33.0233°N, 117.276°W
Report Text: KCRQ 241953Z 25006KT 10SM CLR 27/09 A2995 RMK AO2 SLP138 T02720094
Loading
Personal Weather Stations






























Interactive Weather Map
Tropical Storm Tracking
New forecast layout! Learn more

10-Day Weather Forecast

Advertisements
Track Severe Weather on mobile